sensor_id;sensor_type;location;lat;lon;timestamp;P1;durP1;ratioP1;P2;durP2;ratioP2
65764;SDS011;52915;53.718;19.946;2023-02-28T00:00:23;153.00;;;45.10;;
65764;SDS011;52915;53.718;19.946;2023-02-28T00:11:45;114.80;;;33.10;;
65764;SDS011;52915;53.718;19.946;2023-02-28T00:16:48;77.60;;;25.90;;
65764;SDS011;52915;53.718;19.946;2023-02-28T00:21:52;156.70;;;44.40;;
65764;SDS011;52915;53.718;19.946;2023-02-28T00:26:56;103.10;;;33.70;;
65764;SDS011;52915;53.718;19.946;2023-02-28T00:31:59;159.10;;;40.20;;
65764;SDS011;52915;53.718;19.946;2023-02-28T00:37:07;135.90;;;35.70;;
65764;SDS011;52915;53.718;19.946;2023-02-28T00:42:15;107.50;;;30.10;;
65764;SDS011;52915;53.718;19.946;2023-02-28T00:47:19;109.30;;;32.40;;
65764;SDS011;52915;53.718;19.946;2023-02-28T00:59:30;148.50;;;38.10;;
65764;SDS011;52915;53.718;19.946;2023-02-28T01:04:34;138.10;;;38.20;;
65764;SDS011;52915;53.718;19.946;2023-02-28T01:16:34;88.30;;;27.00;;
65764;SDS011;52915;53.718;19.946;2023-02-28T01:21:37;80.90;;;24.00;;
65764;SDS011;52915;53.718;19.946;2023-02-28T01:26:47;51.30;;;17.90;;
65764;SDS011;52915;53.718;19.946;2023-02-28T01:31:51;84.00;;;25.60;;
65764;SDS011;52915;53.718;19.946;2023-02-28T01:36:55;107.90;;;32.50;;
65764;SDS011;52915;53.718;19.946;2023-02-28T01:41:59;94.40;;;30.40;;
65764;SDS011;52915;53.718;19.946;2023-02-28T01:47:17;96.80;;;27.80;;
65764;SDS011;52915;53.718;19.946;2023-02-28T01:52:22;84.90;;;27.20;;
65764;SDS011;52915;53.718;19.946;2023-02-28T01:57:41;77.20;;;25.20;;
65764;SDS011;52915;53.718;19.946;2023-02-28T02:02:51;78.70;;;24.90;;
65764;SDS011;52915;53.718;19.946;2023-02-28T02:08:04;87.90;;;27.00;;
65764;SDS011;52915;53.718;19.946;2023-02-28T02:18:49;55.30;;;19.30;;
65764;SDS011;52915;53.718;19.946;2023-02-28T02:24:24;58.80;;;18.10;;
65764;SDS011;52915;53.718;19.946;2023-02-28T02:41:47;32.50;;;12.00;;
65764;SDS011;52915;53.718;19.946;2023-02-28T02:46:48;32.50;;;12.50;;
65764;SDS011;52915;53.718;19.946;2023-02-28T02:52:00;24.10;;;10.00;;
65764;SDS011;52915;53.718;19.946;2023-02-28T02:57:13;32.10;;;11.10;;
65764;SDS011;52915;53.718;19.946;2023-02-28T03:02:28;29.30;;;10.80;;
65764;SDS011;52915;53.718;19.946;2023-02-28T03:07:37;30.50;;;11.50;;
65764;SDS011;52915;53.718;19.946;2023-02-28T03:20:16;32.60;;;12.30;;
65764;SDS011;52915;53.718;19.946;2023-02-28T03:26:22;46.80;;;16.10;;
65764;SDS011;52915;53.718;19.946;2023-02-28T03:31:39;44.00;;;14.90;;
65764;SDS011;52915;53.718;19.946;2023-02-28T03:36:52;44.50;;;15.80;;
65764;SDS011;52915;53.718;19.946;2023-02-28T03:42:04;40.80;;;13.60;;
65764;SDS011;52915;53.718;19.946;2023-02-28T03:47:22;53.80;;;17.10;;
65764;SDS011;52915;53.718;19.946;2023-02-28T03:52:33;53.00;;;15.10;;
65764;SDS011;52915;53.718;19.946;2023-02-28T04:16:21;76.50;;;24.00;;
65764;SDS011;52915;53.718;19.946;2023-02-28T04:27:33;86.10;;;21.00;;
65764;SDS011;52915;53.718;19.946;2023-02-28T04:32:37;60.00;;;18.30;;
65764;SDS011;52915;53.718;19.946;2023-02-28T04:37:41;74.70;;;20.80;;
65764;SDS011;52915;53.718;19.946;2023-02-28T04:42:44;78.00;;;23.10;;
65764;SDS011;52915;53.718;19.946;2023-02-28T04:47:48;62.10;;;18.70;;
65764;SDS011;52915;53.718;19.946;2023-02-28T04:52:51;60.30;;;21.30;;
65764;SDS011;52915;53.718;19.946;2023-02-28T04:57:55;53.80;;;23.00;;
65764;SDS011;52915;53.718;19.946;2023-02-28T05:03:02;58.30;;;21.30;;
65764;SDS011;52915;53.718;19.946;2023-02-28T05:08:06;63.40;;;21.50;;
65764;SDS011;52915;53.718;19.946;2023-02-28T05:13:35;61.80;;;22.90;;
65764;SDS011;52915;53.718;19.946;2023-02-28T05:18:39;52.20;;;16.90;;
65764;SDS011;52915;53.718;19.946;2023-02-28T05:23:43;46.70;;;17.50;;
65764;SDS011;52915;53.718;19.946;2023-02-28T05:28:50;44.90;;;17.50;;
65764;SDS011;52915;53.718;19.946;2023-02-28T05:33:53;62.50;;;23.30;;
65764;SDS011;52915;53.718;19.946;2023-02-28T05:49:29;108.60;;;34.60;;
65764;SDS011;52915;53.718;19.946;2023-02-28T05:54:33;123.10;;;37.40;;
65764;SDS011;52915;53.718;19.946;2023-02-28T05:59:43;108.20;;;38.90;;
65764;SDS011;52915;53.718;19.946;2023-02-28T06:04:47;98.70;;;34.80;;
65764;SDS011;52915;53.718;19.946;2023-02-28T06:09:50;91.90;;;30.60;;
65764;SDS011;52915;53.718;19.946;2023-02-28T06:14:54;47.90;;;18.60;;
65764;SDS011;52915;53.718;19.946;2023-02-28T06:20:16;35.40;;;13.90;;
65764;SDS011;52915;53.718;19.946;2023-02-28T06:25:20;28.50;;;11.30;;
65764;SDS011;52915;53.718;19.946;2023-02-28T06:30:27;21.70;;;9.90;;
65764;SDS011;52915;53.718;19.946;2023-02-28T06:49:39;66.50;;;22.50;;
65764;SDS011;52915;53.718;19.946;2023-02-28T06:54:42;53.80;;;20.40;;
65764;SDS011;52915;53.718;19.946;2023-02-28T07:00:12;100.20;;;38.80;;
65764;SDS011;52915;53.718;19.946;2023-02-28T07:05:41;84.40;;;31.60;;
65764;SDS011;52915;53.718;19.946;2023-02-28T07:30:19;48.10;;;18.40;;
65764;SDS011;52915;53.718;19.946;2023-02-28T07:35:49;53.30;;;18.00;;
65764;SDS011;52915;53.718;19.946;2023-02-28T07:55:08;39.80;;;13.60;;
65764;SDS011;52915;53.718;19.946;2023-02-28T08:00:13;44.30;;;18.10;;
65764;SDS011;52915;53.718;19.946;2023-02-28T08:05:48;35.30;;;15.10;;
65764;SDS011;52915;53.718;19.946;2023-02-28T08:17:12;40.80;;;16.20;;
65764;SDS011;52915;53.718;19.946;2023-02-28T09:06:16;28.20;;;12.00;;
65764;SDS011;52915;53.718;19.946;2023-02-28T09:11:46;13.00;;;8.30;;
65764;SDS011;52915;53.718;19.946;2023-02-28T09:16:50;10.60;;;6.30;;
65764;SDS011;52915;53.718;19.946;2023-02-28T09:22:20;10.70;;;4.70;;
65764;SDS011;52915;53.718;19.946;2023-02-28T09:33:52;9.60;;;5.50;;
65764;SDS011;52915;53.718;19.946;2023-02-28T09:39:07;27.30;;;10.90;;
65764;SDS011;52915;53.718;19.946;2023-02-28T09:50:35;12.30;;;5.90;;
65764;SDS011;52915;53.718;19.946;2023-02-28T09:55:56;8.40;;;4.50;;
65764;SDS011;52915;53.718;19.946;2023-02-28T10:01:18;6.00;;;3.50;;
65764;SDS011;52915;53.718;19.946;2023-02-28T10:06:54;5.50;;;3.40;;
65764;SDS011;52915;53.718;19.946;2023-02-28T10:24:47;15.10;;;7.00;;
65764;SDS011;52915;53.718;19.946;2023-02-28T10:36:40;6.20;;;3.90;;
65764;SDS011;52915;53.718;19.946;2023-02-28T11:00:26;8.40;;;3.10;;
65764;SDS011;52915;53.718;19.946;2023-02-28T11:12:19;165.80;;;38.10;;
65764;SDS011;52915;53.718;19.946;2023-02-28T11:17:38;14.10;;;5.80;;
65764;SDS011;52915;53.718;19.946;2023-02-28T11:29:18;9.40;;;4.30;;
65764;SDS011;52915;53.718;19.946;2023-02-28T11:48:13;14.50;;;7.10;;
65764;SDS011;52915;53.718;19.946;2023-02-28T12:36:43;7.20;;;4.70;;
65764;SDS011;52915;53.718;19.946;2023-02-28T12:55:03;4.40;;;3.40;;
65764;SDS011;52915;53.718;19.946;2023-02-28T13:00:19;6.70;;;4.00;;
65764;SDS011;52915;53.718;19.946;2023-02-28T13:05:59;8.30;;;4.50;;
65764;SDS011;52915;53.718;19.946;2023-02-28T13:11:39;6.80;;;3.30;;
65764;SDS011;52915;53.718;19.946;2023-02-28T13:22:39;4.70;;;4.10;;
65764;SDS011;52915;53.718;19.946;2023-02-28T13:37:41;10.40;;;4.90;;
65764;SDS011;52915;53.718;19.946;2023-02-28T13:43:19;7.40;;;5.30;;
65764;SDS011;52915;53.718;19.946;2023-02-28T13:48:41;9.70;;;6.20;;
65764;SDS011;52915;53.718;19.946;2023-02-28T14:32:29;17.50;;;13.00;;
65764;SDS011;52915;53.718;19.946;2023-02-28T14:37:38;37.40;;;24.70;;
65764;SDS011;52915;53.718;19.946;2023-02-28T14:43:05;103.90;;;64.00;;
65764;SDS011;52915;53.718;19.946;2023-02-28T14:48:22;125.20;;;79.50;;
65764;SDS011;52915;53.718;19.946;2023-02-28T14:53:30;90.70;;;60.90;;
65764;SDS011;52915;53.718;19.946;2023-02-28T14:58:39;53.80;;;37.60;;
65764;SDS011;52915;53.718;19.946;2023-02-28T15:03:43;185.50;;;111.70;;
65764;SDS011;52915;53.718;19.946;2023-02-28T15:08:48;130.80;;;74.30;;
65764;SDS011;52915;53.718;19.946;2023-02-28T15:14:19;46.60;;;30.60;;
65764;SDS011;52915;53.718;19.946;2023-02-28T15:19:47;67.50;;;32.50;;
65764;SDS011;52915;53.718;19.946;2023-02-28T15:24:55;51.40;;;25.00;;
65764;SDS011;52915;53.718;19.946;2023-02-28T15:30:08;32.60;;;22.00;;
65764;SDS011;52915;53.718;19.946;2023-02-28T15:35:37;364.00;;;119.30;;
65764;SDS011;52915;53.718;19.946;2023-02-28T15:40:52;514.20;;;181.60;;
65764;SDS011;52915;53.718;19.946;2023-02-28T15:46:13;233.30;;;84.70;;
65764;SDS011;52915;53.718;19.946;2023-02-28T15:56:52;387.90;;;111.30;;
65764;SDS011;52915;53.718;19.946;2023-02-28T16:02:18;595.60;;;200.20;;
65764;SDS011;52915;53.718;19.946;2023-02-28T16:07:26;745.20;;;265.70;;
65764;SDS011;52915;53.718;19.946;2023-02-28T16:12:35;1140.50;;;377.60;;
65764;SDS011;52915;53.718;19.946;2023-02-28T16:32:38;262.00;;;94.30;;
65764;SDS011;52915;53.718;19.946;2023-02-28T16:37:43;208.30;;;71.90;;
65764;SDS011;52915;53.718;19.946;2023-02-28T16:42:49;321.10;;;107.10;;
65764;SDS011;52915;53.718;19.946;2023-02-28T16:47:56;325.20;;;102.80;;
65764;SDS011;52915;53.718;19.946;2023-02-28T16:53:04;350.50;;;108.80;;
65764;SDS011;52915;53.718;19.946;2023-02-28T16:58:15;246.60;;;73.80;;
65764;SDS011;52915;53.718;19.946;2023-02-28T17:13:40;203.10;;;79.60;;
65764;SDS011;52915;53.718;19.946;2023-02-28T17:18:44;223.90;;;81.70;;
65764;SDS011;52915;53.718;19.946;2023-02-28T17:30:56;231.90;;;84.90;;
65764;SDS011;52915;53.718;19.946;2023-02-28T17:36:00;200.20;;;75.00;;
65764;SDS011;52915;53.718;19.946;2023-02-28T17:41:05;222.50;;;80.90;;
65764;SDS011;52915;53.718;19.946;2023-02-28T17:46:16;298.90;;;107.40;;
65764;SDS011;52915;53.718;19.946;2023-02-28T17:51:25;280.00;;;98.20;;
65764;SDS011;52915;53.718;19.946;2023-02-28T18:03:52;310.10;;;115.10;;
65764;SDS011;52915;53.718;19.946;2023-02-28T18:08:58;298.40;;;104.30;;
65764;SDS011;52915;53.718;19.946;2023-02-28T18:14:04;246.70;;;87.60;;
65764;SDS011;52915;53.718;19.946;2023-02-28T18:19:09;242.10;;;81.30;;
65764;SDS011;52915;53.718;19.946;2023-02-28T18:24:19;287.60;;;104.70;;
65764;SDS011;52915;53.718;19.946;2023-02-28T18:43:14;269.30;;;95.70;;
65764;SDS011;52915;53.718;19.946;2023-02-28T18:48:19;253.30;;;88.60;;
65764;SDS011;52915;53.718;19.946;2023-02-28T19:07:26;147.40;;;55.80;;
65764;SDS011;52915;53.718;19.946;2023-02-28T19:32:11;170.20;;;64.70;;
65764;SDS011;52915;53.718;19.946;2023-02-28T19:43:11;132.70;;;48.50;;
65764;SDS011;52915;53.718;19.946;2023-02-28T19:48:16;140.80;;;57.40;;
65764;SDS011;52915;53.718;19.946;2023-02-28T19:53:22;84.40;;;33.40;;
65764;SDS011;52915;53.718;19.946;2023-02-28T19:58:51;72.60;;;35.90;;
65764;SDS011;52915;53.718;19.946;2023-02-28T20:03:55;72.40;;;31.00;;
65764;SDS011;52915;53.718;19.946;2023-02-28T20:08:59;96.80;;;39.80;;
65764;SDS011;52915;53.718;19.946;2023-02-28T20:14:03;92.00;;;35.20;;
65764;SDS011;52915;53.718;19.946;2023-02-28T20:19:07;77.40;;;31.10;;
65764;SDS011;52915;53.718;19.946;2023-02-28T20:24:12;89.60;;;33.20;;
65764;SDS011;52915;53.718;19.946;2023-02-28T20:29:15;72.30;;;28.80;;
65764;SDS011;52915;53.718;19.946;2023-02-28T20:34:20;72.50;;;26.50;;
65764;SDS011;52915;53.718;19.946;2023-02-28T20:45:22;94.20;;;39.10;;
65764;SDS011;52915;53.718;19.946;2023-02-28T20:50:26;89.50;;;34.50;;
65764;SDS011;52915;53.718;19.946;2023-02-28T20:55:30;74.80;;;28.30;;
65764;SDS011;52915;53.718;19.946;2023-02-28T21:14:56;75.80;;;31.60;;
65764;SDS011;52915;53.718;19.946;2023-02-28T21:19:59;107.60;;;29.10;;
65764;SDS011;52915;53.718;19.946;2023-02-28T21:25:03;361.60;;;98.30;;
65764;SDS011;52915;53.718;19.946;2023-02-28T21:30:32;255.20;;;67.90;;
65764;SDS011;52915;53.718;19.946;2023-02-28T21:35:36;160.50;;;45.40;;
65764;SDS011;52915;53.718;19.946;2023-02-28T21:40:40;90.70;;;30.20;;
65764;SDS011;52915;53.718;19.946;2023-02-28T21:45:44;86.90;;;32.40;;
65764;SDS011;52915;53.718;19.946;2023-02-28T21:50:55;281.40;;;89.00;;
65764;SDS011;52915;53.718;19.946;2023-02-28T21:56:07;239.60;;;82.20;;
65764;SDS011;52915;53.718;19.946;2023-02-28T22:01:14;426.50;;;123.00;;
65764;SDS011;52915;53.718;19.946;2023-02-28T22:06:22;149.60;;;47.50;;
65764;SDS011;52915;53.718;19.946;2023-02-28T22:11:35;61.10;;;22.80;;
65764;SDS011;52915;53.718;19.946;2023-02-28T22:16:40;64.40;;;25.40;;
65764;SDS011;52915;53.718;19.946;2023-02-28T22:27:50;55.00;;;21.60;;
65764;SDS011;52915;53.718;19.946;2023-02-28T22:32:54;43.30;;;16.40;;
65764;SDS011;52915;53.718;19.946;2023-02-28T22:51:33;71.00;;;25.80;;
65764;SDS011;52915;53.718;19.946;2023-02-28T23:02:32;66.50;;;26.10;;
65764;SDS011;52915;53.718;19.946;2023-02-28T23:07:38;85.00;;;30.30;;
65764;SDS011;52915;53.718;19.946;2023-02-28T23:12:43;157.60;;;59.50;;
65764;SDS011;52915;53.718;19.946;2023-02-28T23:17:53;416.20;;;173.80;;
65764;SDS011;52915;53.718;19.946;2023-02-28T23:22:57;215.30;;;87.60;;
65764;SDS011;52915;53.718;19.946;2023-02-28T23:28:01;119.90;;;40.90;;
65764;SDS011;52915;53.718;19.946;2023-02-28T23:33:05;140.40;;;49.20;;
65764;SDS011;52915;53.718;19.946;2023-02-28T23:38:09;124.40;;;40.30;;
65764;SDS011;52915;53.718;19.946;2023-02-28T23:43:12;83.50;;;30.80;;
65764;SDS011;52915;53.718;19.946;2023-02-28T23:48:16;43.40;;;17.50;;
65764;SDS011;52915;53.718;19.946;2023-02-28T23:53:20;39.80;;;15.70;;
65764;SDS011;52915;53.718;19.946;2023-02-28T23:58:50;33.80;;;15.00;;
